Terminal Aerodrome Forecast
Issued by NWS Denver/Boulder, CO

Home | Current Version | Previous Version | Text Only | Print | Product List | Glossary On
Versions: 1 2 3 4 5 6 7 8 9 10 11 12 13 14 15 16 17 18 19 20 21 22 23 24 25 26 27 28 29 30 31 32 33 34 35 36 37 38 39 40 41 42 43 44 45 46 47 48 49 50
000
FTUS45 KBOU 042058 AAB
TAFDEN
TAF AMD
KDEN 042058Z 0421/0524 03006KT P6SM FEW100 SCT140 BKN200
     FM042200 13007KT P6SM SCT120 BKN200
     FM050000 10006KT P6SM FEW060 BKN090 OVC140
     FM050300 VRB05KT P6SM VCSH BKN050 OVC100
     FM050600 23010KT P6SM VCSH SCT050 BKN120
     FM051300 28009KT P6SM FEW060 SCT140
     FM051800 14009KT P6SM FEW220=

USA.gov is the U.S. government's official web portal to all federal, state and local government web resources and services.